Time,TemperatureF,DewpointF,PressureIn,WindDirection,WindDirectionDegrees,WindSpeedMPH,WindSpeedGustMPH,Humidity,HourlyPrecipIn,Conditions,Clouds,dailyrainin,SoftwareType,DateUTC
2017-02-22 00:00:00,45.1,44.0,29.94,North,5,0.0,0.0,96,0.00,,,0.00,Wunderground v.1.15,2017-02-22 08:00:00,
2017-02-22 00:05:00,45.1,44.0,29.94,North,5,0.0,0.0,96,0.00,,,0.01,Wunderground v.1.15,2017-02-22 08:05:00,
2017-02-22 00:15:00,45.1,44.0,29.93,North,5,0.0,0.0,96,0.00,,,0.01,Wunderground v.1.15,2017-02-22 08:15:00,
2017-02-22 00:25:00,45.0,43.9,29.94,North,5,0.0,0.0,96,0.04,,,0.02,Wunderground v.1.15,2017-02-22 08:25:00,
2017-02-22 00:35:00,44.9,43.8,29.94,North,5,0.0,0.0,96,0.00,,,0.02,Wunderground v.1.15,2017-02-22 08:35:00,
2017-02-22 00:40:00,44.9,43.8,29.93,North,5,0.0,0.0,96,0.00,,,0.02,Wunderground v.1.15,2017-02-22 08:40:00,
2017-02-22 00:45:00,44.8,44.0,29.94,North,5,0.0,0.0,97,0.00,,,0.02,Wunderground v.1.15,2017-02-22 08:45:00,
2017-02-22 00:50:00,44.8,44.0,29.94,North,5,0.0,0.0,97,0.00,,,0.02,Wunderground v.1.15,2017-02-22 08:50:00,
2017-02-22 00:55:00,44.8,44.0,29.93,North,5,0.0,0.0,97,0.00,,,0.02,Wunderground v.1.15,2017-02-22 08:55:00,
2017-02-22 01:00:00,44.7,43.9,29.93,North,5,0.0,0.0,97,0.00,,,0.02,Wunderground v.1.15,2017-02-22 09:00:00,
2017-02-22 01:05:00,45.6,44.5,29.93,SE,126,0.0,0.0,96,0.00,,,0.02,Wunderground v.1.15,2017-02-22 09:05:00,
2017-02-22 01:15:00,45.5,45.5,29.93,SE,126,0.0,0.0,100,0.00,,,0.02,Wunderground v.1.15,2017-02-22 09:15:00,
2017-02-22 01:25:00,45.4,44.3,29.93,SE,126,0.0,0.0,96,0.00,,,0.02,Wunderground v.1.15,2017-02-22 09:25:00,
2017-02-22 01:30:00,45.4,44.3,29.93,SE,126,0.0,0.0,96,0.00,,,0.02,Wunderground v.1.15,2017-02-22 09:30:00,
2017-02-22 01:35:00,45.4,44.3,29.93,SE,126,0.0,0.0,96,0.00,,,0.02,Wunderground v.1.15,2017-02-22 09:35:00,
2017-02-22 01:45:00,45.2,44.1,29.92,SE,126,0.0,0.0,96,0.00,,,0.02,Wunderground v.1.15,2017-02-22 09:45:00,
2017-02-22 01:50:00,45.2,44.1,29.92,SE,126,0.0,0.0,96,0.00,,,0.02,Wunderground v.1.15,2017-02-22 09:50:00,
2017-02-22 01:55:00,45.1,44.0,29.92,SE,126,0.0,0.0,96,0.00,,,0.02,Wunderground v.1.15,2017-02-22 09:55:00,
2017-02-22 02:00:00,45.2,44.1,29.92,SE,126,0.0,0.0,96,0.00,,,0.02,Wunderground v.1.15,2017-02-22 10:00:00,
2017-02-22 02:05:00,45.2,44.1,29.92,SE,126,0.0,0.0,96,0.00,,,0.02,Wunderground v.1.15,2017-02-22 10:05:00,
2017-02-22 02:15:00,45.1,44.0,29.92,SE,126,0.0,0.0,96,0.00,,,0.02,Wunderground v.1.15,2017-02-22 10:15:00,
2017-02-22 02:25:00,45.1,44.0,29.92,SE,126,0.0,0.0,96,0.00,,,0.02,Wunderground v.1.15,2017-02-22 10:25:00,
2017-02-22 02:30:00,45.0,43.9,29.92,SE,126,0.0,0.0,96,0.00,,,0.02,Wunderground v.1.15,2017-02-22 10:30:00,
2017-02-22 02:35:00,44.9,43.8,29.92,SE,126,0.0,0.0,96,0.00,,,0.02,Wunderground v.1.15,2017-02-22 10:35:00,
2017-02-22 02:40:00,44.9,43.8,29.91,SE,126,0.0,0.0,96,0.00,,,0.02,Wunderground v.1.15,2017-02-22 10:40:00,
2017-02-22 02:45:00,44.9,43.8,29.91,SE,126,0.0,0.0,96,0.00,,,0.02,Wunderground v.1.15,2017-02-22 10:45:00,
2017-02-22 02:50:00,44.9,44.1,29.91,SE,126,0.0,0.0,97,0.00,,,0.02,Wunderground v.1.15,2017-02-22 10:50:00,
2017-02-22 02:55:00,44.9,44.1,29.90,SE,126,0.0,0.0,97,0.00,,,0.02,Wunderground v.1.15,2017-02-22 10:55:00,
2017-02-22 03:00:00,44.8,44.0,29.91,SE,126,0.0,0.0,97,0.00,,,0.02,Wunderground v.1.15,2017-02-22 11:00:00,
2017-02-22 03:05:00,44.8,44.0,29.91,SE,126,0.0,0.0,97,0.00,,,0.02,Wunderground v.1.15,2017-02-22 11:05:00,
2017-02-22 03:15:00,44.8,44.0,29.90,SE,126,0.0,0.0,97,0.00,,,0.02,Wunderground v.1.15,2017-02-22 11:15:00,
2017-02-22 03:20:00,44.8,44.0,29.91,SE,126,0.0,0.0,97,0.00,,,0.02,Wunderground v.1.15,2017-02-22 11:20:00,
2017-02-22 03:30:00,44.7,43.9,29.91,NNW,344,0.0,0.0,97,0.00,,,0.02,Wunderground v.1.15,2017-02-22 11:30:00,
2017-02-22 03:35:00,44.3,43.2,29.91,NNW,344,0.0,0.0,96,0.00,,,0.02,Wunderground v.1.15,2017-02-22 11:35:00,
2017-02-22 03:40:00,44.1,43.0,29.91,NNW,341,0.0,0.0,96,0.00,,,0.02,Wunderground v.1.15,2017-02-22 11:40:00,
2017-02-22 03:45:00,44.1,43.0,29.91,NNW,342,0.0,0.0,96,0.00,,,0.02,Wunderground v.1.15,2017-02-22 11:45:00,
2017-02-22 03:55:00,44.0,42.7,29.91,WNW,300,0.0,0.0,95,0.00,,,0.02,Wunderground v.1.15,2017-02-22 11:55:00,
2017-02-22 04:10:00,43.5,42.2,29.91,North,350,0.0,0.0,95,0.00,,,0.02,Wunderground v.1.15,2017-02-22 12:10:00,
2017-02-22 04:20:00,43.1,41.8,29.91,NNW,344,0.0,0.0,95,0.00,,,0.02,Wunderground v.1.15,2017-02-22 12:20:00,
2017-02-22 04:30:00,42.7,41.4,29.91,North,355,0.0,0.0,95,0.00,,,0.02,Wunderground v.1.15,2017-02-22 12:30:00,
2017-02-22 04:40:00,42.4,41.1,29.91,North,355,0.0,0.0,95,0.00,,,0.02,Wunderground v.1.15,2017-02-22 12:40:00,
2017-02-22 04:45:00,42.2,40.9,29.91,North,355,0.0,0.0,95,0.00,,,0.02,Wunderground v.1.15,2017-02-22 12:45:00,
2017-02-22 04:55:00,41.8,40.5,29.91,North,355,0.0,0.0,95,0.00,,,0.02,Wunderground v.1.15,2017-02-22 12:55:00,
2017-02-22 05:00:00,41.6,40.3,29.92,NNW,341,0.0,0.0,95,0.00,,,0.02,Wunderground v.1.15,2017-02-22 13:00:00,
2017-02-22 05:10:00,41.6,40.3,29.91,NE,55,0.0,0.0,95,0.00,,,0.02,Wunderground v.1.15,2017-02-22 13:10:00,
2017-02-22 05:15:00,41.4,40.1,29.91,NE,55,0.0,0.0,95,0.00,,,0.02,Wunderground v.1.15,2017-02-22 13:15:00,
2017-02-22 05:20:00,41.3,40.0,29.91,NE,55,0.0,0.0,95,0.00,,,0.02,Wunderground v.1.15,2017-02-22 13:20:00,
2017-02-22 05:25:00,41.1,39.8,29.91,NE,52,0.0,0.0,95,0.00,,,0.02,Wunderground v.1.15,2017-02-22 13:25:00,
2017-02-22 05:30:00,40.7,39.4,29.91,NNE,15,0.0,0.0,95,0.00,,,0.02,Wunderground v.1.15,2017-02-22 13:30:00,
2017-02-22 05:40:00,40.5,39.2,29.91,North,5,0.0,0.0,95,0.00,,,0.02,Wunderground v.1.15,2017-02-22 13:40:00,
2017-02-22 05:45:00,40.4,39.1,29.91,North,9,0.0,0.0,95,0.00,,,0.02,Wunderground v.1.15,2017-02-22 13:45:00,
2017-02-22 05:50:00,40.4,39.1,29.91,North,10,0.0,0.0,95,0.00,,,0.02,Wunderground v.1.15,2017-02-22 13:50:00,
2017-02-22 05:55:00,40.4,39.1,29.91,North,10,0.0,0.0,95,0.00,,,0.02,Wunderground v.1.15,2017-02-22 13:55:00,
2017-02-22 06:00:00,40.2,38.9,29.91,North,10,0.0,0.0,95,0.00,,,0.02,Wunderground v.1.15,2017-02-22 14:00:00,
2017-02-22 06:10:00,40.0,38.7,29.91,North,10,0.0,0.0,95,0.00,,,0.02,Wunderground v.1.15,2017-02-22 14:10:00,
2017-02-22 06:15:00,40.1,38.8,29.91,North,9,0.0,0.0,95,0.00,,,0.02,Wunderground v.1.15,2017-02-22 14:15:00,
2017-02-22 06:25:00,40.1,38.8,29.90,North,355,0.0,0.0,95,0.00,,,0.02,Wunderground v.1.15,2017-02-22 14:25:00,
2017-02-22 06:30:00,38.5,37.2,29.90,NW,306,0.0,0.0,95,0.00,,,0.02,Wunderground v.1.15,2017-02-22 14:30:00,
2017-02-22 06:40:00,38.1,37.1,29.90,NW,306,0.0,0.0,96,0.00,,,0.02,Wunderground v.1.15,2017-02-22 14:40:00,
2017-02-22 06:45:00,38.2,37.2,29.90,NW,319,0.0,0.0,96,0.00,,,0.02,Wunderground v.1.15,2017-02-22 14:45:00,
2017-02-22 06:55:00,38.6,37.6,29.90,NW,319,0.0,0.0,96,0.00,,,0.02,Wunderground v.1.15,2017-02-22 14:55:00,
2017-02-22 07:00:00,38.5,37.5,29.90,NW,319,0.0,0.0,96,0.00,,,0.02,Wunderground v.1.15,2017-02-22 15:00:00,
2017-02-22 07:05:00,38.4,37.4,29.90,NW,319,0.0,0.0,96,0.00,,,0.02,Wunderground v.1.15,2017-02-22 15:05:00,
2017-02-22 07:15:00,38.2,37.2,29.90,NW,319,0.0,0.0,96,0.00,,,0.02,Wunderground v.1.15,2017-02-22 15:15:00,
2017-02-22 07:20:00,38.0,37.0,29.90,NW,319,0.0,0.0,96,0.00,,,0.02,Wunderground v.1.15,2017-02-22 15:20:00,
2017-02-22 07:25:00,37.7,36.4,29.90,NW,319,0.0,0.0,95,0.00,,,0.02,Wunderground v.1.15,2017-02-22 15:25:00,
2017-02-22 07:30:00,37.3,36.0,29.90,NW,319,0.0,0.0,95,0.00,,,0.02,Wunderground v.1.15,2017-02-22 15:30:00,
2017-02-22 07:35:00,37.1,36.1,29.90,NW,319,0.0,0.0,96,0.00,,,0.02,Wunderground v.1.15,2017-02-22 15:35:00,
2017-02-22 07:40:00,37.2,36.2,29.90,NW,319,0.0,0.0,96,0.00,,,0.02,Wunderground v.1.15,2017-02-22 15:40:00,
2017-02-22 07:50:00,37.8,37.0,29.90,NW,319,0.0,0.0,97,0.00,,,0.02,Wunderground v.1.15,2017-02-22 15:50:00,
2017-02-22 07:55:00,38.4,37.9,29.90,NW,319,0.0,0.0,98,0.00,,,0.02,Wunderground v.1.15,2017-02-22 15:55:00,
2017-02-22 08:00:00,39.1,38.6,29.90,NW,319,0.0,0.0,98,0.00,,,0.02,Wunderground v.1.15,2017-02-22 16:00:00,
2017-02-22 08:05:00,39.7,39.2,29.90,NW,319,0.0,0.0,98,0.00,,,0.02,Wunderground v.1.15,2017-02-22 16:05:00,
2017-02-22 08:15:00,41.4,40.9,29.90,NNW,331,0.0,0.0,98,0.00,,,0.02,Wunderground v.1.15,2017-02-22 16:15:00,
2017-02-22 08:20:00,42.0,41.2,29.90,NNW,331,0.0,0.0,97,0.00,,,0.02,Wunderground v.1.15,2017-02-22 16:20:00,
2017-02-22 08:25:00,42.5,41.4,29.89,East,87,0.0,0.0,96,0.00,,,0.02,Wunderground v.1.15,2017-02-22 16:25:00,
2017-02-22 08:35:00,43.4,41.8,29.89,West,261,0.0,0.0,94,0.00,,,0.02,Wunderground v.1.15,2017-02-22 16:35:00,
2017-02-22 08:40:00,44.0,42.1,29.89,WSW,238,0.0,0.0,93,0.00,,,0.02,Wunderground v.1.15,2017-02-22 16:40:00,
2017-02-22 08:50:00,44.7,41.7,29.89,West,261,0.0,0.0,89,0.00,,,0.02,Wunderground v.1.15,2017-02-22 16:50:00,
2017-02-22 08:55:00,45.0,41.7,29.89,West,263,0.0,0.0,88,0.00,,,0.02,Wunderground v.1.15,2017-02-22 16:55:00,
2017-02-22 09:05:00,45.8,42.2,29.89,ESE,112,0.0,0.0,87,0.00,,,0.02,Wunderground v.1.15,2017-02-22 17:05:00,
2017-02-22 09:15:00,46.8,43.1,29.89,WSW,248,0.0,0.0,87,0.00,,,0.02,Wunderground v.1.15,2017-02-22 17:15:00,
2017-02-22 09:20:00,47.3,43.3,29.89,SE,134,0.0,0.0,86,0.00,,,0.02,Wunderground v.1.15,2017-02-22 17:20:00,
2017-02-22 09:25:00,47.6,43.3,29.89,SSW,210,0.0,0.0,85,0.00,,,0.02,Wunderground v.1.15,2017-02-22 17:25:00,
2017-02-22 09:30:00,47.8,42.9,29.89,WNW,294,0.0,0.0,83,0.00,,,0.02,Wunderground v.1.15,2017-02-22 17:30:00,
2017-02-22 09:40:00,48.5,43.9,29.88,SSE,154,0.0,0.0,84,0.00,,,0.02,Wunderground v.1.15,2017-02-22 17:40:00,
2017-02-22 09:45:00,48.7,44.1,29.88,SSW,202,1.0,2.0,84,0.00,,,0.02,Wunderground v.1.15,2017-02-22 17:45:00,
2017-02-22 09:55:00,48.6,39.6,29.89,WNW,288,4.0,4.0,71,0.00,,,0.02,Wunderground v.1.15,2017-02-22 17:55:00,
2017-02-22 10:00:00,48.5,42.0,29.89,WSW,245,5.0,8.0,78,0.00,,,0.02,Wunderground v.1.15,2017-02-22 18:00:00,
2017-02-22 10:06:00,47.7,42.2,29.89,West,260,6.0,8.0,81,0.00,,,0.02,Wunderground v.1.15,2017-02-22 18:06:00,
2017-02-22 10:15:00,47.2,42.6,29.89,West,275,6.0,7.0,84,0.00,,,0.02,Wunderground v.1.15,2017-02-22 18:15:00,
2017-02-22 10:20:00,47.4,42.8,29.89,SSW,204,5.0,5.0,84,0.00,,,0.02,Wunderground v.1.15,2017-02-22 18:20:00,